Lone Star, South Carolina
Current Conditions -  °F | °C
As of 3:53 PM on Sunday 21 Dec 2014 (Local Time) from KOGB Reporting Station
Overcast Overcast  
Wind Chill: 52°   Ceiling: 5500
Heat Index: 52°   Visibility: 10mi
Dew Point: 40°   Wind: 7mph
Humidity: 63%   Direction: 60°ENE
Pressure: 30.16"   Gusts: NA
Location:  33.5645°N, 80.6572°W
Report Text: KOGB 212053Z AUTO 06006KT 10SM OVC055 11/04 A3016 RMK AO2 SLP212 T01110044 55014
Loading
Personal Weather Stations






























Interactive Weather Map New forecast layout! Learn more

10-Day Weather Forecast

Advertisements
Track Severe Weather on mobile